Santa Rosa, CA (95402)

12:11 AM PDT on July 24, 2016 (GMT -0700)
Los Alamos Rd | | Change Station

Elev 460 ft 38.46 °N, 122.63 °W | Updated 1 minute ago

Clear
Clear
62.4 °F
Feels Like 62.4 °F
N
0.0
Wind Variable Wind from NE
Gusts 1.0 mph

Today
High -- | Low -- °F
--% Chance of Precip.
Yesterday
High -- | Low -- °F
Precip. -- in
Pressure 29.81 in
Visibility 9.0 miles
Clouds Clear
Dew Point 52 °F
Humidity 70%
Rainfall 0.00 in
Snow Depth Not available.
6:06 AM 8:27 PM
Waning Gibbous, 79% visible
METAR KSTS 240653Z AUTO 19003KT 9SM CLR 16/11 A2983 RMK AO2 SLP095 T01610106
Pressure 29.81 in
Visibility 9.0 miles
Clouds Clear
Dew Point 52 °F
Humidity 70%
Rainfall 0.00 in
Snow Depth Not available.
6:06 AM 8:27 PM
Waning Gibbous, 79% visible
METAR KSTS 240653Z AUTO 19003KT 9SM CLR 16/11 A2983 RMK AO2 SLP095 T01610106

10-Day Weather Forecast

Almanac

Astronomy

Jul. 24, 2016 Rise Set
Actual Time
Civil Twilight
Nautical Twilight
Astronomical Twilight
Moon
Length of Visible Light
Length of Day
Tomorrow will be .
, % of the Moon is Illuminated

Today's Extremes

State Highs State Lows

Community

WunderPhotos

Upload Photos

1,927,037 photos uploaded!

WunderBlog® & News

Nearby

Air Quality

  Air Quality AQ Index Pollutant
Not available.

Snow Depth

Station Depth Elevation

Earthquake Activity

City Distance Mag. Time & Date
Minimum magnitude displayed is 2.5.

Coastal Water Temperatures

Place Temperature

Stations

Nearby Weather Stations

Station Location Temp. Windchill Dew Point Humidity Wind Precip. Elev Updated Type
                   

Watches & Warnings

There are currently no watches in effect.